createdAt,value
2019-02-22T00:01:15.043Z,98.00
2019-02-22T00:02:31.912Z,98.09
2019-02-22T00:03:34.707Z,98.21
2019-02-22T00:04:37.492Z,98.63
2019-02-22T00:05:40.341Z,98.63
2019-02-22T00:06:43.203Z,98.65
2019-02-22T00:07:46.293Z,98.65
2019-02-22T00:08:56.097Z,98.83
2019-02-22T00:10:00.462Z,98.94
2019-02-22T00:11:03.259Z,98.94
2019-02-22T00:12:06.057Z,98.68
2019-02-22T00:13:10.287Z,98.80
2019-02-22T00:14:25.160Z,98.81
2019-02-22T00:15:30.941Z,99.03
2019-02-22T00:16:33.771Z,99.12
2019-02-22T00:17:38.729Z,98.83
2019-02-22T00:18:41.596Z,99.19
2019-02-22T00:19:44.371Z,99.64
2019-02-22T00:20:47.451Z,99.27
2019-02-22T00:21:50.407Z,99.27
2019-02-22T00:22:54.059Z,99.14
2019-02-22T00:23:59.670Z,99.40
2019-02-22T00:25:02.462Z,99.40
2019-02-22T00:26:05.311Z,99.61
2019-02-22T00:27:08.462Z,100.00
2019-02-22T00:28:11.267Z,99.89
2019-02-22T00:29:14.066Z,100.00
2019-02-22T00:30:16.846Z,99.75
2019-02-22T00:31:19.642Z,100.00
2019-02-22T00:32:22.530Z,99.85
2019-02-22T00:33:25.649Z,99.85
2019-02-22T00:34:28.858Z,99.80
2019-02-22T00:35:31.749Z,99.86
2019-02-22T00:36:36.995Z,100.00
2019-02-22T00:37:39.822Z,100.00
2019-02-22T00:38:42.648Z,100.00
2019-02-22T00:39:46.304Z,99.98
2019-02-22T00:40:49.160Z,100.00
2019-02-22T00:41:51.961Z,99.82
2019-02-22T00:42:55.169Z,99.82
2019-02-22T00:43:57.962Z,100.00
2019-02-22T00:45:00.779Z,99.81
2019-02-22T00:46:10.446Z,99.81
2019-02-22T00:47:18.249Z,100.00
2019-02-22T00:48:21.135Z,100.00
2019-02-22T00:49:26.942Z,100.00
2019-02-22T00:50:29.829Z,100.00
2019-02-22T00:51:34.645Z,100.00
2019-02-22T00:52:37.722Z,100.00
2019-02-22T00:53:40.507Z,100.00
2019-02-22T00:54:43.304Z,100.00
2019-02-22T00:55:50.062Z,100.00
2019-02-22T00:56:52.860Z,100.00
2019-02-22T00:57:55.635Z,100.00
2019-02-22T00:59:01.614Z,100.00
2019-02-22T01:00:16.902Z,100.00
2019-02-22T01:01:19.665Z,100.00
2019-02-22T01:02:23.882Z,100.00
2019-02-22T01:03:29.756Z,100.00
2019-02-22T01:04:35.032Z,100.00
2019-02-22T01:05:38.172Z,100.00
2019-02-22T01:06:43.579Z,100.00
2019-02-22T01:07:46.391Z,100.00
2019-02-22T01:08:49.232Z,100.00
2019-02-22T01:09:52.204Z,100.00
2019-02-22T01:10:54.950Z,99.96
2019-02-22T01:11:58.092Z,100.00
2019-02-22T01:13:00.869Z,100.00
2019-02-22T01:14:03.677Z,100.00
2019-02-22T01:15:06.522Z,99.94
2019-02-22T01:16:09.378Z,100.00
2019-02-22T01:17:12.249Z,100.00
2019-02-22T01:18:15.334Z,100.00
2019-02-22T01:19:18.179Z,100.00
2019-02-22T01:20:21.041Z,100.00
2019-02-22T01:21:23.830Z,100.00
2019-02-22T01:22:26.692Z,100.00
2019-02-22T01:23:29.439Z,100.00
2019-02-22T01:24:34.293Z,100.00
2019-02-22T01:25:37.148Z,100.00
2019-02-22T01:26:39.954Z,99.89
2019-02-22T01:27:42.721Z,99.73
2019-02-22T01:28:45.526Z,99.65
2019-02-22T01:29:48.324Z,99.44
2019-02-22T01:30:51.929Z,99.44
2019-02-22T01:31:54.724Z,99.66
2019-02-22T01:32:57.560Z,99.09
2019-02-22T01:34:00.349Z,99.32
2019-02-22T01:35:03.364Z,99.15
2019-02-22T01:36:06.204Z,99.74
2019-02-22T01:37:09.290Z,99.49
2019-02-22T01:38:12.101Z,99.30
2019-02-22T01:39:14.872Z,99.32
2019-02-22T01:40:18.117Z,98.91
2019-02-22T01:41:20.954Z,98.84
2019-02-22T01:42:23.717Z,98.66
2019-02-22T01:43:26.822Z,98.89
2019-02-22T01:44:29.627Z,98.52
2019-02-22T01:45:32.485Z,98.26
2019-02-22T01:46:35.368Z,98.42
2019-02-22T01:47:38.142Z,98.74
2019-02-22T01:48:40.955Z,98.71
2019-02-22T01:49:46.782Z,98.71
2019-02-22T01:50:49.581Z,98.42
2019-02-22T01:51:52.422Z,98.41
2019-02-22T01:52:55.233Z,98.40
2019-02-22T01:53:58.411Z,98.40
2019-02-22T01:55:01.201Z,97.87
2019-02-22T01:56:04.305Z,97.93
2019-02-22T01:57:07.153Z,98.35
2019-02-22T01:58:09.954Z,98.11
2019-02-22T01:59:12.746Z,97.95
2019-02-22T02:00:15.831Z,97.95
2019-02-22T02:01:18.643Z,98.27
2019-02-22T02:02:21.791Z,98.43
2019-02-22T02:03:24.559Z,98.43
2019-02-22T02:04:30.409Z,98.20
2019-02-22T02:05:33.269Z,98.12
2019-02-22T02:06:36.067Z,98.12
2019-02-22T02:07:39.321Z,98.18
2019-02-22T02:08:42.496Z,98.21
2019-02-22T02:09:45.362Z,98.19
2019-02-22T02:10:54.159Z,98.39
2019-02-22T02:11:52.588Z,98.39
2019-02-22T02:12:55.378Z,98.23
2019-02-22T02:13:58.229Z,97.88
2019-02-22T02:15:01.286Z,97.88
2019-02-22T02:16:06.612Z,98.33
2019-02-22T02:17:09.396Z,98.34
2019-02-22T02:18:12.637Z,98.65
2019-02-22T02:19:15.494Z,98.65
2019-02-22T02:20:18.299Z,98.29
2019-02-22T02:21:21.380Z,98.51
2019-02-22T02:22:24.196Z,98.61
2019-02-22T02:23:26.987Z,98.26
2019-02-22T02:24:29.839Z,98.26
2019-02-22T02:25:32.615Z,98.57
2019-02-22T02:26:35.811Z,98.87
2019-02-22T02:27:38.872Z,98.53
2019-02-22T02:28:41.645Z,98.53
2019-02-22T02:29:44.505Z,98.91
2019-02-22T02:30:53.387Z,99.02
2019-02-22T02:31:58.214Z,99.02
2019-02-22T02:33:01.023Z,98.84
2019-02-22T02:34:05.646Z,98.65
2019-02-22T02:35:08.403Z,99.12
2019-02-22T02:36:39.511Z,98.64
2019-02-22T02:38:00.127Z,98.64
2019-02-22T02:39:00.568Z,99.10
2019-02-22T02:40:03.449Z,99.06
2019-02-22T02:41:10.166Z,98.92
2019-02-22T02:42:11.118Z,98.78
2019-02-22T02:43:13.963Z,99.08
2019-02-22T02:44:17.117Z,99.08
2019-02-22T02:45:19.896Z,98.70
2019-02-22T02:46:22.765Z,98.70
2019-02-22T02:47:26.275Z,98.84
2019-02-22T02:48:29.068Z,99.21
2019-02-22T02:49:31.857Z,99.41
2019-02-22T02:50:34.638Z,99.43
2019-02-22T02:51:39.969Z,99.59
2019-02-22T02:52:42.732Z,99.38
2019-02-22T02:53:57.655Z,99.25
2019-02-22T02:55:04.774Z,99.30
2019-02-22T02:56:07.567Z,99.69
2019-02-22T02:57:13.399Z,99.69
2019-02-22T02:58:35.250Z,99.45
2019-02-22T02:59:44.303Z,99.74
2019-02-22T03:00:49.337Z,99.14
2019-02-22T03:02:01.106Z,99.57
2019-02-22T03:03:05.491Z,99.50
2019-02-22T03:04:14.258Z,99.50
2019-02-22T03:05:17.344Z,99.43
2019-02-22T03:06:25.653Z,99.64
2019-02-22T03:07:45.269Z,100.00
2019-02-22T03:08:54.264Z,99.78
2019-02-22T03:09:54.627Z,99.66
2019-02-22T03:10:57.425Z,99.99
2019-02-22T03:12:00.521Z,100.00
2019-02-22T03:13:03.306Z,100.00
2019-02-22T03:14:06.154Z,100.00
2019-02-22T03:15:09.022Z,100.00
2019-02-22T03:16:11.811Z,100.00
2019-02-22T03:17:14.633Z,100.00
2019-02-22T03:18:20.737Z,100.00
2019-02-22T03:19:26.079Z,100.00
2019-02-22T03:20:31.413Z,100.00
2019-02-22T03:21:33.748Z,100.00
2019-02-22T03:22:36.550Z,100.00
2019-02-22T03:23:39.346Z,100.00
2019-02-22T03:24:42.524Z,100.00
2019-02-22T03:25:45.350Z,100.00
2019-02-22T03:26:48.577Z,100.00
2019-02-22T03:27:51.370Z,100.00
2019-02-22T03:28:54.156Z,100.00
2019-02-22T03:29:57.071Z,100.00
2019-02-22T03:31:00.132Z,100.00
2019-02-22T03:32:02.943Z,100.00
2019-02-22T03:33:05.785Z,100.00
2019-02-22T03:34:08.564Z,100.00
2019-02-22T03:35:14.090Z,100.00
2019-02-22T03:36:21.089Z,100.00
2019-02-22T03:37:21.670Z,100.00
2019-02-22T03:38:24.508Z,100.00
2019-02-22T03:39:27.333Z,100.00
2019-02-22T03:40:30.142Z,100.00
2019-02-22T03:41:33.598Z,100.00
2019-02-22T03:42:36.611Z,100.00
2019-02-22T03:43:39.795Z,100.00
2019-02-22T03:44:42.635Z,100.00
2019-02-22T03:45:45.484Z,100.00
2019-02-22T03:46:48.299Z,100.00
2019-02-22T03:47:51.159Z,100.00
2019-02-22T03:48:53.943Z,100.00
2019-02-22T03:49:57.014Z,100.00
2019-02-22T03:50:59.902Z,100.00
2019-02-22T03:52:21.259Z,100.00
2019-02-22T03:53:33.481Z,100.00
2019-02-22T03:54:36.288Z,100.00
2019-02-22T03:55:39.098Z,100.00
2019-02-22T03:56:42.163Z,100.00
2019-02-22T03:57:45.389Z,100.00
2019-02-22T03:58:48.249Z,100.00
2019-02-22T03:59:51.472Z,100.00
2019-02-22T04:00:54.262Z,100.00
2019-02-22T04:01:57.095Z,100.00
2019-02-22T04:03:00.238Z,100.00
2019-02-22T04:04:09.293Z,100.00
2019-02-22T04:05:12.141Z,100.00
2019-02-22T04:06:17.209Z,100.00
2019-02-22T04:07:20.066Z,100.00
2019-02-22T04:08:22.883Z,100.00
2019-02-22T04:09:25.965Z,100.00
2019-02-22T04:10:28.796Z,100.00
2019-02-22T04:11:31.596Z,100.00
2019-02-22T04:12:34.473Z,100.00
2019-02-22T04:13:37.242Z,100.00
2019-02-22T04:14:45.138Z,100.00
2019-02-22T04:15:48.343Z,100.00
2019-02-22T04:16:51.157Z,100.00
2019-02-22T04:17:54.367Z,100.00
2019-02-22T04:18:57.170Z,100.00
2019-02-22T04:20:01.097Z,100.00
2019-02-22T04:21:03.935Z,100.00
2019-02-22T04:22:07.005Z,100.00
2019-02-22T04:23:09.794Z,100.00
2019-02-22T04:24:12.600Z,100.00
2019-02-22T04:25:15.380Z,100.00
2019-02-22T04:26:18.260Z,100.00
2019-02-22T04:27:21.047Z,100.00
2019-02-22T04:28:23.887Z,100.00
2019-02-22T04:29:26.701Z,100.00
2019-02-22T04:30:29.558Z,100.00
2019-02-22T04:31:32.377Z,100.00
2019-02-22T04:32:35.148Z,100.00
2019-02-22T04:33:40.228Z,100.00
2019-02-22T04:34:43.334Z,100.00
2019-02-22T04:35:46.185Z,100.00
2019-02-22T04:36:48.973Z,100.00
2019-02-22T04:37:51.849Z,100.00
2019-02-22T04:38:54.643Z,100.00
2019-02-22T04:39:57.413Z,99.91
2019-02-22T04:41:00.538Z,99.91
2019-02-22T04:42:03.380Z,99.91
2019-02-22T04:43:06.181Z,100.00
2019-02-22T04:44:09.423Z,99.48
2019-02-22T04:45:12.654Z,99.65
2019-02-22T04:46:17.943Z,99.78
2019-02-22T04:47:20.248Z,100.00
2019-02-22T04:48:23.043Z,100.00
2019-02-22T04:49:25.891Z,99.94
2019-02-22T04:50:29.201Z,99.54
2019-02-22T04:51:32.080Z,99.62
2019-02-22T04:52:34.858Z,99.25
2019-02-22T04:53:39.101Z,99.46
2019-02-22T04:54:41.967Z,99.46
2019-02-22T04:55:44.929Z,99.46
2019-02-22T04:56:48.411Z,99.59
2019-02-22T04:57:51.395Z,99.54
2019-02-22T04:58:54.261Z,99.54
2019-02-22T05:00:00.534Z,98.71
2019-02-22T05:01:04.107Z,98.71
2019-02-22T05:02:06.885Z,99.05
2019-02-22T05:03:10.099Z,98.80
2019-02-22T05:04:12.893Z,98.82
2019-02-22T05:05:15.758Z,98.82
2019-02-22T05:06:19.883Z,99.07
2019-02-22T05:07:22.659Z,98.84
2019-02-22T05:08:26.046Z,98.81
2019-02-22T05:09:28.865Z,98.81
2019-02-22T05:10:31.644Z,98.75
2019-02-22T05:11:34.448Z,98.73
2019-02-22T05:12:39.987Z,98.60
2019-02-22T05:13:42.821Z,98.45
2019-02-22T05:14:45.637Z,98.34
2019-02-22T05:15:48.437Z,98.79
2019-02-22T05:16:51.219Z,98.66
2019-02-22T05:17:54.016Z,98.66
2019-02-22T05:18:57.154Z,98.53
2019-02-22T05:19:59.925Z,98.30
2019-02-22T05:21:02.738Z,98.45
2019-02-22T05:22:05.967Z,99.08
2019-02-22T05:23:09.105Z,98.67
2019-02-22T05:24:11.927Z,98.67
2019-02-22T05:25:16.975Z,98.34
2019-02-22T05:26:21.683Z,98.34
2019-02-22T05:27:24.482Z,98.38
2019-02-22T05:28:27.246Z,98.61
2019-02-22T05:29:30.085Z,98.61
2019-02-22T05:30:32.952Z,98.42
2019-02-22T05:31:37.185Z,98.45
2019-02-22T05:32:39.972Z,98.70
2019-02-22T05:33:42.828Z,98.65
2019-02-22T05:34:45.624Z,98.65
2019-02-22T05:35:49.457Z,98.42
2019-02-22T05:36:52.281Z,98.45
2019-02-22T05:37:55.425Z,98.39
2019-02-22T05:38:58.209Z,98.73
2019-02-22T05:40:03.741Z,98.09
2019-02-22T05:41:06.616Z,98.41
2019-02-22T05:42:09.403Z,98.07
2019-02-22T05:43:12.187Z,98.11
2019-02-22T05:44:15.248Z,98.20
2019-02-22T05:45:20.331Z,98.05
2019-02-22T05:46:23.229Z,97.90
2019-02-22T05:47:27.372Z,97.90
2019-02-22T05:48:30.199Z,98.02
2019-02-22T05:49:33.082Z,98.08
2019-02-22T05:50:35.861Z,98.01
2019-02-22T05:51:38.762Z,97.73
2019-02-22T05:52:41.635Z,97.73
2019-02-22T05:53:45.757Z,97.65
2019-02-22T05:54:48.642Z,97.46
2019-02-22T05:55:51.839Z,97.64
2019-02-22T05:56:55.240Z,97.83
2019-02-22T05:57:58.607Z,97.71
2019-02-22T05:59:01.425Z,97.26
2019-02-22T06:00:04.242Z,97.37
2019-02-22T06:01:07.107Z,97.36
2019-02-22T06:02:10.316Z,97.03
2019-02-22T06:03:13.153Z,97.06
2019-02-22T06:04:15.906Z,97.63
2019-02-22T06:05:18.570Z,97.64
2019-02-22T06:06:21.343Z,97.69
2019-02-22T06:07:24.196Z,97.17
2019-02-22T06:08:27.102Z,97.14
2019-02-22T06:09:29.824Z,97.35
2019-02-22T06:10:34.064Z,97.10
2019-02-22T06:11:36.705Z,97.14
2019-02-22T06:12:42.934Z,97.67
2019-02-22T06:13:45.721Z,97.39
2019-02-22T06:14:48.927Z,97.08
2019-02-22T06:15:51.836Z,97.45
2019-02-22T06:16:55.330Z,97.18
2019-02-22T06:17:58.197Z,97.38
2019-02-22T06:19:01.403Z,97.08
2019-02-22T06:20:04.279Z,97.06
2019-02-22T06:21:07.509Z,97.16
2019-02-22T06:22:11.519Z,97.04
2019-02-22T06:23:14.298Z,97.04
2019-02-22T06:24:23.090Z,96.91
2019-02-22T06:25:28.729Z,96.64
2019-02-22T06:26:33.810Z,96.35
2019-02-22T06:27:37.415Z,96.40
2019-02-22T06:28:41.284Z,96.28
2019-02-22T06:29:44.110Z,96.34
2019-02-22T06:43:48.043Z,95.90
2019-02-22T06:44:50.895Z,95.78
2019-02-22T06:45:53.688Z,95.78
2019-02-22T06:46:56.407Z,95.63
2019-02-22T06:48:02.103Z,95.55
2019-02-22T06:49:05.139Z,95.63
2019-02-22T06:50:11.023Z,95.13
2019-02-22T06:51:13.735Z,94.65
2019-02-22T06:52:16.347Z,95.11
2019-02-22T06:53:20.286Z,95.11
2019-02-22T06:54:25.257Z,94.65
2019-02-22T06:55:28.388Z,94.46
2019-02-22T06:56:31.011Z,94.42
2019-02-22T06:57:37.383Z,94.10
2019-02-22T06:58:40.061Z,94.10
2019-02-22T06:59:43.172Z,94.31
2019-02-22T07:00:46.343Z,94.38
2019-02-22T07:01:50.112Z,94.42
2019-02-22T07:02:52.909Z,94.26
2019-02-22T07:03:55.687Z,94.61
2019-02-22T07:04:58.553Z,94.61
2019-02-22T07:06:01.352Z,94.37
2019-02-22T07:07:04.067Z,94.40
2019-02-22T07:08:07.307Z,94.31
2019-02-22T07:09:10.176Z,94.31
2019-02-22T07:10:13.368Z,94.27
2019-02-22T07:11:32.889Z,94.20
2019-02-22T07:12:42.740Z,94.53
2019-02-22T07:13:45.594Z,94.53
2019-02-22T07:14:48.701Z,94.25
2019-02-22T07:15:51.366Z,94.04
2019-02-22T07:16:54.122Z,94.04
2019-02-22T07:17:58.660Z,93.94
2019-02-22T07:19:01.299Z,93.71
2019-02-22T07:20:03.976Z,93.55
2019-02-22T07:21:17.254Z,93.57
2019-02-22T07:22:19.053Z,93.57
2019-02-22T07:23:24.931Z,93.67
2019-02-22T07:24:28.273Z,93.48
2019-02-22T07:25:31.054Z,93.48
2019-02-22T07:27:47.846Z,93.78
2019-02-22T07:28:51.212Z,93.33
2019-02-22T07:30:00.333Z,93.53
2019-02-22T07:31:08.735Z,93.16
2019-02-22T07:32:11.453Z,93.00
2019-02-22T07:33:14.169Z,93.40
2019-02-22T07:34:17.129Z,92.99
2019-02-22T07:35:20.055Z,93.21
2019-02-22T07:36:23.156Z,93.37
2019-02-22T07:37:26.718Z,93.38
2019-02-22T07:38:29.332Z,92.99
2019-02-22T07:39:31.974Z,93.01
2019-02-22T07:40:38.198Z,93.00
2019-02-22T07:41:41.103Z,92.98
2019-02-22T07:42:43.850Z,93.13
2019-02-22T07:43:47.103Z,92.85
2019-02-22T07:44:49.787Z,92.82
2019-02-22T07:45:54.046Z,92.65
2019-02-22T07:46:57.137Z,92.65
2019-02-22T07:48:02.188Z,92.05
2019-02-22T07:49:05.223Z,92.00
2019-02-22T07:50:08.601Z,92.00
2019-02-22T07:51:21.879Z,92.18
2019-02-22T07:52:24.589Z,91.50
2019-02-22T07:53:27.789Z,91.50
2019-02-22T07:54:30.723Z,91.94
2019-02-22T07:55:33.608Z,91.52
2019-02-22T07:56:36.419Z,91.91
2019-02-22T07:57:40.171Z,91.64
2019-02-22T07:58:43.271Z,91.93
2019-02-22T07:59:46.484Z,91.66
2019-02-22T08:00:49.308Z,91.66
2019-02-22T08:01:55.379Z,91.55
2019-02-22T08:02:58.164Z,91.50
2019-02-22T08:04:00.900Z,91.47
2019-02-22T08:05:09.149Z,91.59
2019-02-22T08:06:10.537Z,91.20
2019-02-22T08:07:13.400Z,91.45
2019-02-22T08:08:16.554Z,91.45
2019-02-22T08:09:22.236Z,90.74
2019-02-22T08:10:26.292Z,91.11
2019-02-22T08:11:29.672Z,90.91
2019-02-22T08:12:35.443Z,90.08
2019-02-22T08:13:38.347Z,0.00
2019-02-22T08:14:41.296Z,0.00
2019-02-22T08:15:44.563Z,100.00
2019-02-22T08:16:50.399Z,87.75
2019-02-22T08:17:52.773Z,86.14
2019-02-22T08:19:04.594Z,85.36
2019-02-22T08:20:07.418Z,0.00
2019-02-22T08:21:13.361Z,0.00
2019-02-22T08:22:16.206Z,84.46
2019-02-22T08:23:21.203Z,83.54
2019-02-22T08:24:26.234Z,83.54
2019-02-22T08:25:29.009Z,84.12
2019-02-22T08:26:31.822Z,84.12
2019-02-22T08:27:36.821Z,82.79
2019-02-22T08:28:39.809Z,80.36
2019-02-22T08:29:42.643Z,78.98
2019-02-22T08:30:45.964Z,77.97
2019-02-22T08:31:48.656Z,76.61
2019-02-22T08:32:54.071Z,75.80
2019-02-22T08:33:57.228Z,74.74
2019-02-22T08:35:02.959Z,73.65
2019-02-22T08:36:05.690Z,72.42
2019-02-22T08:37:10.810Z,70.32
2019-02-22T08:38:13.629Z,68.14
2019-02-22T08:39:16.319Z,66.76
2019-02-22T08:40:19.091Z,66.76
2019-02-22T08:41:21.756Z,66.66
2019-02-22T08:42:24.711Z,67.15
2019-02-22T08:43:31.481Z,67.31
2019-02-22T08:44:34.206Z,67.31
2019-02-22T08:47:18.097Z,69.07
2019-02-22T08:48:21.660Z,69.81
2019-02-22T08:49:24.682Z,69.99
2019-02-22T08:50:31.849Z,70.25
2019-02-22T08:51:34.487Z,70.25
2019-02-22T08:52:37.281Z,71.08
2019-02-22T08:53:40.382Z,72.38
2019-02-22T08:54:47.201Z,73.25
2019-02-22T08:55:48.273Z,73.04
2019-02-22T08:56:51.054Z,73.40
2019-02-22T08:57:57.901Z,73.26
2019-02-22T08:59:00.765Z,73.40
2019-02-22T09:00:03.483Z,74.39
2019-02-22T09:01:06.327Z,74.19
2019-02-22T09:02:09.388Z,74.86
2019-02-22T09:03:12.599Z,75.55
2019-02-22T09:04:15.541Z,75.80
2019-02-22T09:05:18.762Z,75.64
2019-02-22T09:06:21.619Z,75.55
2019-02-22T09:07:24.521Z,75.77
2019-02-22T09:08:30.523Z,75.75
2019-02-22T09:09:33.306Z,75.00
2019-02-22T09:10:36.583Z,75.11
2019-02-22T09:11:42.409Z,74.98
2019-02-22T09:12:45.231Z,74.92
2019-02-22T09:13:48.067Z,74.87
2019-02-22T09:14:52.564Z,74.57
2019-02-22T09:15:57.804Z,74.74
2019-02-22T09:17:01.184Z,73.59
2019-02-22T09:18:09.895Z,73.07
2019-02-22T09:19:15.157Z,73.16
2019-02-22T09:20:20.767Z,72.65
2019-02-22T09:21:23.991Z,72.79
2019-02-22T09:22:27.288Z,73.17
2019-02-22T09:23:30.087Z,73.17
2019-02-22T09:24:33.774Z,73.54
2019-02-22T09:25:38.784Z,72.68
2019-02-22T09:26:41.586Z,72.68
2019-02-22T09:27:50.871Z,72.04
2019-02-22T09:28:55.557Z,71.74
2019-02-22T09:29:59.214Z,70.95
2019-02-22T09:31:02.137Z,71.38
2019-02-22T09:32:06.639Z,71.06
2019-02-22T09:33:19.599Z,71.29
2019-02-22T09:34:22.947Z,71.75
2019-02-22T09:35:25.787Z,71.29
2019-02-22T09:36:28.813Z,71.25
2019-02-22T09:37:31.770Z,71.16
2019-02-22T09:38:34.709Z,71.39
2019-02-22T09:39:42.087Z,72.07
2019-02-22T09:40:47.799Z,71.36
2019-02-22T09:41:52.768Z,71.04
2019-02-22T09:42:55.690Z,71.04
2019-02-22T09:44:01.313Z,70.31
2019-02-22T09:45:04.183Z,69.84
2019-02-22T09:46:07.340Z,69.84
2019-02-22T09:47:10.119Z,70.85
2019-02-22T09:48:13.749Z,71.40
2019-02-22T09:49:16.410Z,71.40
2019-02-22T09:50:19.080Z,71.05
2019-02-22T09:51:21.749Z,70.79
2019-02-22T09:52:28.800Z,70.58
2019-02-22T09:53:31.533Z,70.99
2019-02-22T09:54:34.231Z,70.70
2019-02-22T09:55:36.918Z,70.26
2019-02-22T09:56:41.624Z,70.26
2019-02-22T09:57:46.120Z,69.90
2019-02-22T09:58:48.757Z,69.03
2019-02-22T09:59:51.438Z,69.49
2019-02-22T10:00:54.124Z,69.49
2019-02-22T10:01:59.753Z,68.46
2019-02-22T10:03:07.014Z,69.05
2019-02-22T10:04:11.454Z,68.10
2019-02-22T10:05:14.211Z,68.12
2019-02-22T10:06:20.217Z,67.88
2019-02-22T10:07:28.223Z,67.98
2019-02-22T10:08:31.016Z,67.88
2019-02-22T10:09:33.834Z,67.25
2019-02-22T10:10:39.343Z,66.93
2019-02-22T10:11:42.102Z,67.21
2019-02-22T10:12:45.077Z,67.76
2019-02-22T10:13:48.239Z,67.43
2019-02-22T10:14:51.359Z,67.45
2019-02-22T10:15:54.177Z,67.77
2019-02-22T10:16:57.064Z,67.77
2019-02-22T10:18:01.845Z,68.73
2019-02-22T10:19:07.237Z,68.89
2019-02-22T10:20:10.096Z,68.72
2019-02-22T10:21:13.339Z,69.23
2019-02-22T10:22:18.096Z,68.73
2019-02-22T10:23:20.898Z,68.73
2019-02-22T10:24:26.277Z,69.06
2019-02-22T10:25:30.438Z,68.79
2019-02-22T10:26:33.561Z,68.79
2019-02-22T10:27:36.366Z,68.99
2019-02-22T10:28:39.122Z,69.60
2019-02-22T10:29:45.717Z,69.28
2019-02-22T10:30:48.537Z,70.05
2019-02-22T10:31:51.185Z,70.05
2019-02-22T10:32:54.096Z,69.78
2019-02-22T10:33:56.777Z,70.47
2019-02-22T10:34:59.745Z,70.10
2019-02-22T10:36:03.686Z,70.10
2019-02-22T10:37:09.793Z,70.20
2019-02-22T10:38:14.092Z,70.30
2019-02-22T10:39:17.183Z,70.78
2019-02-22T10:40:20.076Z,70.78
2019-02-22T10:41:25.815Z,70.74
2019-02-22T10:42:28.474Z,70.97
2019-02-22T10:43:31.213Z,71.11
2019-02-22T10:44:34.561Z,70.74
2019-02-22T10:45:37.511Z,70.74
2019-02-22T10:46:47.879Z,70.56
2019-02-22T10:47:50.656Z,70.09
2019-02-22T10:49:02.367Z,70.09
2019-02-22T10:50:05.235Z,69.65
2019-02-22T10:51:08.837Z,69.65
2019-02-22T10:52:15.300Z,68.34
2019-02-22T10:53:18.486Z,68.03
2019-02-22T10:54:21.268Z,68.03
2019-02-22T10:55:27.159Z,67.87
2019-02-22T10:56:30.480Z,67.87
2019-02-22T10:57:33.451Z,68.29
2019-02-22T10:58:36.584Z,68.45
2019-02-22T10:59:42.425Z,68.45
2019-02-22T11:00:47.102Z,67.89
2019-02-22T11:02:01.625Z,67.90
2019-02-22T11:03:10.150Z,67.92
2019-02-22T11:04:15.013Z,67.61
2019-02-22T11:05:17.649Z,67.50
2019-02-22T11:06:20.551Z,67.67
2019-02-22T11:07:23.488Z,67.56
2019-02-22T11:08:26.373Z,67.61
2019-02-22T11:09:29.175Z,67.69
2019-02-22T11:10:37.194Z,67.69
2019-02-22T11:11:40.851Z,66.97
2019-02-22T11:12:48.048Z,66.49
2019-02-22T11:13:52.616Z,66.47
2019-02-22T11:14:58.545Z,66.47
2019-02-22T11:16:01.402Z,67.07
2019-02-22T11:17:04.918Z,66.75
2019-02-22T11:18:09.803Z,67.01
2019-02-22T11:19:12.620Z,65.99
2019-02-22T11:20:18.221Z,66.32
2019-02-22T11:21:21.564Z,65.82
2019-02-22T11:22:25.825Z,65.41
2019-02-22T11:23:34.819Z,65.24
2019-02-22T11:24:37.759Z,64.48
2019-02-22T11:25:40.527Z,64.51
2019-02-22T11:26:45.973Z,64.63
2019-02-22T11:27:49.760Z,64.67
2019-02-22T11:28:55.194Z,64.88
2019-02-22T11:29:59.663Z,65.09
2019-02-22T11:42:48.377Z,66.47
2019-02-22T11:43:51.318Z,66.25
2019-02-22T11:44:54.220Z,66.02
2019-02-22T11:45:59.543Z,66.02
2019-02-22T11:47:03.558Z,66.07
2019-02-22T11:48:09.641Z,65.21
2019-02-22T11:49:12.706Z,65.27
2019-02-22T11:50:15.930Z,65.27
2019-02-22T11:51:21.234Z,65.22
2019-02-22T11:52:24.034Z,65.21
2019-02-22T11:53:32.370Z,64.98
2019-02-22T11:54:35.282Z,64.84
2019-02-22T11:55:40.352Z,64.83
2019-02-22T11:56:45.833Z,64.97
2019-02-22T11:57:48.716Z,64.97
2019-02-22T11:58:51.387Z,65.24
2019-02-22T11:59:57.276Z,65.25
2019-02-22T12:01:01.752Z,65.08
2019-02-22T12:02:10.034Z,65.34
2019-02-22T12:03:24.367Z,64.99
2019-02-22T12:04:21.811Z,64.80
2019-02-22T12:05:24.699Z,64.80
2019-02-22T12:06:31.627Z,64.74
2019-02-22T12:07:34.563Z,64.92
2019-02-22T12:08:37.431Z,64.89
2019-02-22T12:09:45.223Z,64.98
2019-02-22T12:10:48.387Z,64.98
2019-02-22T12:11:54.139Z,64.49
2019-02-22T12:12:59.689Z,65.25
2019-02-22T12:14:02.659Z,65.08
2019-02-22T12:15:10.084Z,65.35
2019-02-22T12:16:12.816Z,64.97
2019-02-22T12:17:15.743Z,65.09
2019-02-22T12:18:21.028Z,65.33
2019-02-22T12:19:31.155Z,65.69
2019-02-22T12:20:32.035Z,65.08
2019-02-22T12:21:34.976Z,65.08
2019-02-22T12:22:37.852Z,65.08
2019-02-22T12:23:40.631Z,65.33
2019-02-22T12:24:46.503Z,65.52
2019-02-22T12:25:56.382Z,65.06
2019-02-22T12:27:00.753Z,65.07
2019-02-22T12:28:08.091Z,64.83
2019-02-22T12:29:10.904Z,64.83
2019-02-22T12:30:17.351Z,65.31
2019-02-22T12:31:20.685Z,64.95
2019-02-22T12:32:23.563Z,64.32
2019-02-22T12:33:27.918Z,64.32
2019-02-22T12:34:35.201Z,64.65
2019-02-22T12:35:37.654Z,64.70
2019-02-22T12:36:40.548Z,64.60
2019-02-22T12:37:44.017Z,64.63
2019-02-22T12:38:47.065Z,64.33
2019-02-22T12:39:52.378Z,64.84
2019-02-22T12:40:55.636Z,64.53
2019-02-22T12:42:01.452Z,64.64
2019-02-22T12:43:04.337Z,64.64
2019-02-22T12:44:07.466Z,63.95
2019-02-22T12:45:10.265Z,63.95
2019-02-22T12:46:13.169Z,63.52
2019-02-22T12:47:16.013Z,63.64
2019-02-22T12:48:18.849Z,63.68
2019-02-22T12:49:21.692Z,63.36
2019-02-22T12:50:25.024Z,63.36
2019-02-22T12:51:27.937Z,62.72
2019-02-22T12:52:30.801Z,62.72
2019-02-22T12:53:36.053Z,61.65
2019-02-22T12:54:41.804Z,60.85
2019-02-22T12:55:44.594Z,61.28
2019-02-22T12:56:57.461Z,61.28
2019-02-22T12:57:55.493Z,60.37
2019-02-22T12:58:58.358Z,60.25
2019-02-22T13:00:04.656Z,60.25
2019-02-22T13:01:07.475Z,59.42
2019-02-22T13:02:13.845Z,59.42
2019-02-22T13:03:22.843Z,59.08
2019-02-22T13:04:25.646Z,59.08
2019-02-22T13:05:28.486Z,59.61
2019-02-22T13:06:31.277Z,59.28
2019-02-22T13:07:34.525Z,59.76
2019-02-22T13:08:37.325Z,59.71
2019-02-22T13:09:40.678Z,59.71
2019-02-22T13:10:44.980Z,59.47
2019-02-22T13:11:47.897Z,59.17
2019-02-22T13:12:50.858Z,59.17
2019-02-22T13:13:55.868Z,59.17
2019-02-22T13:14:58.758Z,59.45
2019-02-22T13:16:01.653Z,59.90
2019-02-22T13:17:04.546Z,60.07
2019-02-22T13:18:08.633Z,60.07
2019-02-22T13:19:11.295Z,60.40
2019-02-22T13:20:17.117Z,60.00
2019-02-22T13:21:23.767Z,60.00
2019-02-22T13:22:26.613Z,59.43
2019-02-22T13:23:32.247Z,58.57
2019-02-22T13:24:35.233Z,58.03
2019-02-22T13:25:41.845Z,57.01
2019-02-22T13:26:45.552Z,57.42
2019-02-22T13:27:48.831Z,57.67
2019-02-22T13:28:52.623Z,57.96
2019-02-22T13:29:55.465Z,57.76
2019-02-22T13:30:58.351Z,57.76
2019-02-22T13:32:01.097Z,57.08
2019-02-22T13:33:07.137Z,56.99
2019-02-22T13:34:10.438Z,57.47
2019-02-22T13:35:13.126Z,57.47
2019-02-22T13:36:17.202Z,57.49
2019-02-22T13:37:21.697Z,57.20
2019-02-22T13:38:27.754Z,57.18
2019-02-22T13:39:30.588Z,56.82
2019-02-22T13:40:33.763Z,56.38
2019-02-22T13:41:36.631Z,56.45
2019-02-22T13:42:39.455Z,56.18
2019-02-22T13:43:42.293Z,55.90
2019-02-22T13:44:45.238Z,55.77
2019-02-22T13:45:49.112Z,55.77
2019-02-22T13:46:52.444Z,55.80
2019-02-22T13:47:55.701Z,55.96
2019-02-22T13:48:58.925Z,56.12
2019-02-22T13:50:01.773Z,56.88
2019-02-22T13:51:06.165Z,57.67
2019-02-22T13:52:10.321Z,57.67
2019-02-22T13:53:18.081Z,58.03
2019-02-22T13:54:23.521Z,58.10
2019-02-22T13:55:26.381Z,58.41
2019-02-22T13:56:30.069Z,58.41
2019-02-22T13:57:34.589Z,58.83
2019-02-22T13:58:37.415Z,58.70
2019-02-22T13:59:43.982Z,59.23
2019-02-22T14:00:46.365Z,59.66
2019-02-22T14:01:49.271Z,59.60
2019-02-22T14:02:52.171Z,59.72
2019-02-22T14:03:54.938Z,59.90
2019-02-22T14:04:57.729Z,60.23
2019-02-22T14:06:02.770Z,60.23
2019-02-22T14:07:05.036Z,60.70
2019-02-22T14:08:07.726Z,60.81